Time;durP1;ratioP1;P1;durP2;ratioP2;P2;SDS_P1;SDS_P2;PMS_P1;PMS_P2;Temp;Humidity;BMP_temperature;BMP_pressure;BME280_temperature;BME280_humidity;BME280_pressure;Samples;Min_cycle;Max_cycle;Signal;HPM_P1;HPM_P2
2021/06/28 00:01:11;;;;;;;4.60;4.17;;;19.20;99.90;;;;;;5069990;28;20619;-85
2021/06/28 00:03:41;;;;;;;4.03;3.73;;;19.30;99.90;;;;;;5070201;28;20653;-86
2021/06/28 00:06:09;;;;;;;5.47;4.97;;;19.20;99.90;;;;;;5069768;28;20649;-86
2021/06/28 00:08:37;;;;;;;4.00;3.70;;;19.30;99.90;;;;;;5070015;28;20658;-88
2021/06/28 00:11:05;;;;;;;5.13;3.80;;;19.20;99.90;;;;;;5070277;28;20647;-87
2021/06/28 00:13:32;;;;;;;4.50;4.20;;;19.10;99.90;;;;;;5069853;28;20615;-88
2021/06/28 00:16:00;;;;;;;4.40;4.10;;;19.10;99.90;;;;;;5070264;28;20690;-88
2021/06/28 00:18:27;;;;;;;5.20;3.80;;;19.10;99.90;;;;;;5070143;28;20726;-88
2021/06/28 00:20:54;;;;;;;4.23;3.93;;;19.10;99.90;;;;;;5070509;28;20626;-88
2021/06/28 00:23:22;;;;;;;3.93;3.63;;;19.10;99.90;;;;;;5070235;28;21025;-88
2021/06/28 00:25:50;;;;;;;4.20;3.90;;;19.10;99.90;;;;;;5069806;28;20643;-88
2021/06/28 00:28:18;;;;;;;5.03;4.63;;;19.00;99.90;;;;;;5070278;28;20654;-88
2021/06/28 00:30:46;;;;;;;4.33;4.03;;;19.00;99.90;;;;;;5069996;28;20607;-88
2021/06/28 00:33:16;;;;;;;4.60;4.20;;;18.80;99.90;;;;;;5070136;28;20609;-88
2021/06/28 00:35:43;;;;;;;4.43;4.17;;;18.80;99.90;;;;;;5069622;28;20623;-90
2021/06/28 00:38:11;;;;;;;4.77;4.40;;;18.70;99.90;;;;;;5070186;28;21015;-89
2021/06/28 00:40:39;;;;;;;6.70;5.87;;;18.60;99.90;;;;;;5069335;28;20614;-88
2021/06/28 00:43:09;;;;;;;7.03;4.90;;;18.70;99.90;;;;;;5069715;28;20647;-88
2021/06/28 00:45:37;;;;;;;5.77;5.30;;;18.70;99.90;;;;;;5069309;28;21050;-88
2021/06/28 00:48:06;;;;;;;5.97;5.37;;;18.70;99.90;;;;;;5069898;28;20672;-88
2021/06/28 00:50:36;;;;;;;4.80;4.50;;;18.60;99.90;;;;;;5069933;28;21037;-87
2021/06/28 00:53:06;;;;;;;4.70;4.40;;;18.60;99.90;;;;;;5069852;28;20604;-87
2021/06/28 00:55:34;;;;;;;5.17;4.80;;;18.60;99.90;;;;;;5069773;28;20699;-87
2021/06/28 00:58:02;;;;;;;5.17;4.77;;;18.60;99.90;;;;;;5069784;28;20637;-87
2021/06/28 01:00:30;;;;;;;5.17;4.87;;;18.70;99.90;;;;;;5069972;28;20664;-87
2021/06/28 01:02:58;;;;;;;6.00;5.40;;;18.70;99.90;;;;;;5069711;28;20628;-86
2021/06/28 01:05:32;;;;;;;6.20;5.70;;;18.60;99.90;;;;;;5072048;28;20682;-85
2021/06/28 01:08:00;;;;;;;5.00;4.60;;;18.60;99.90;;;;;;5073304;28;20618;-86
2021/06/28 01:10:29;;;;;;;4.90;4.60;;;18.60;99.90;;;;;;5070519;28;20962;-85
2021/06/28 01:12:59;;;;;;;5.13;4.83;;;18.50;99.90;;;;;;5053194;28;20615;-85
2021/06/28 01:15:30;;;;;;;4.43;4.13;;;18.60;99.90;;;;;;5058738;28;21433;-86
2021/06/28 01:18:04;;;;;;;5.87;5.37;;;18.60;99.90;;;;;;5052646;28;21631;-85
2021/06/28 01:20:40;;;;;;;7.10;6.50;;;18.70;99.90;;;;;;5061437;28;21212;-84
2021/06/28 01:23:18;;;;;;;5.70;5.30;;;18.80;99.90;;;;;;5068881;28;20628;-85
2021/06/28 01:25:50;;;;;;;6.13;5.73;;;18.80;99.90;;;;;;5060627;28;20794;-85
2021/06/28 01:28:21;;;;;;;6.77;6.27;;;18.80;99.90;;;;;;5068254;28;20738;-85
2021/06/28 01:30:54;;;;;;;5.63;5.23;;;18.80;99.90;;;;;;5061982;28;20622;-84
2021/06/28 01:33:26;;;;;;;5.80;5.27;;;18.70;99.90;;;;;;5065906;28;20650;-84
2021/06/28 01:35:56;;;;;;;4.60;4.30;;;18.70;99.90;;;;;;5071403;28;20627;-84
2021/06/28 01:38:26;;;;;;;6.00;5.50;;;18.80;99.90;;;;;;5054042;28;21249;-84
2021/06/28 01:40:55;;;;;;;6.10;5.60;;;18.90;99.90;;;;;;5052045;28;20974;-84
2021/06/28 01:43:24;;;;;;;5.83;5.40;;;18.80;99.90;;;;;;5052855;28;20634;-84
2021/06/28 01:45:55;;;;;;;6.67;6.17;;;18.60;99.90;;;;;;5062158;28;20664;-84
2021/06/28 01:48:24;;;;;;;6.93;6.43;;;18.70;99.90;;;;;;5072752;28;21188;-83
2021/06/28 01:50:54;;;;;;;7.40;6.80;;;18.70;99.90;;;;;;5072449;28;20626;-83
2021/06/28 01:53:26;;;;;;;6.10;5.60;;;18.70;99.90;;;;;;5072245;28;20642;-83
2021/06/28 01:55:56;;;;;;;5.40;5.07;;;18.80;99.90;;;;;;5071958;28;20686;-84
2021/06/28 01:58:27;;;;;;;4.73;4.43;;;18.70;99.90;;;;;;5072365;28;21201;-84
2021/06/28 02:00:56;;;;;;;5.70;5.20;;;18.60;99.90;;;;;;5072155;28;20607;-84
2021/06/28 02:03:27;;;;;;;4.73;4.43;;;18.50;99.90;;;;;;5058323;28;21254;-84
2021/06/28 02:06:00;;;;;;;5.13;4.73;;;18.60;99.90;;;;;;5051207;28;20647;-83
2021/06/28 02:08:35;;;;;;;4.83;4.30;;;18.40;99.90;;;;;;5052144;28;20619;-83
2021/06/28 02:11:11;;;;;;;4.90;4.50;;;18.40;99.90;;;;;;5052223;28;20628;-83
2021/06/28 02:13:42;;;;;;;5.60;4.87;;;18.40;99.90;;;;;;5051973;28;21034;-83
2021/06/28 02:16:13;;;;;;;5.00;4.60;;;18.30;99.90;;;;;;5050662;28;20621;-83
2021/06/28 02:18:46;;;;;;;5.30;4.90;;;18.30;99.90;;;;;;5052374;28;21229;-83
2021/06/28 02:21:18;;;;;;;5.00;4.60;;;18.30;99.90;;;;;;5052014;28;20624;-83
2021/06/28 02:23:51;;;;;;;5.23;4.83;;;18.30;99.90;;;;;;5051907;28;20627;-83
2021/06/28 02:26:32;;;;;;;4.67;4.37;;;18.30;99.90;;;;;;5051327;28;20685;-84
2021/06/28 02:29:09;;;;;;;5.47;5.03;;;18.50;99.90;;;;;;5051985;28;20717;-83
2021/06/28 02:31:51;;;;;;;4.77;4.47;;;18.60;99.90;;;;;;5051638;28;21220;-83
2021/06/28 02:34:20;;;;;;;5.00;4.57;;;18.60;99.90;;;;;;5051202;28;20633;-83
2021/06/28 02:36:49;;;;;;;4.50;4.10;;;18.60;99.90;;;;;;5058091;28;21224;-84
2021/06/28 02:39:18;;;;;;;4.70;4.30;;;18.60;99.90;;;;;;5071368;28;21473;-84
2021/06/28 02:41:46;;;;;;;4.87;4.47;;;18.50;99.90;;;;;;5071431;28;20702;-84
2021/06/28 02:44:14;;;;;;;5.03;4.63;;;18.50;99.90;;;;;;5071566;28;20663;-83
2021/06/28 02:46:42;;;;;;;6.70;4.50;;;18.50;99.90;;;;;;5071213;28;20657;-84
2021/06/28 02:49:10;;;;;;;4.70;4.40;;;18.40;99.90;;;;;;5071381;28;20655;-83
2021/06/28 02:51:38;;;;;;;4.73;4.43;;;18.50;99.90;;;;;;5071137;28;20625;-83
2021/06/28 02:54:08;;;;;;;4.90;4.50;;;18.40;99.90;;;;;;5071220;28;20668;-83
2021/06/28 02:56:39;;;;;;;4.80;4.40;;;18.50;99.90;;;;;;5070948;28;20979;-83
2021/06/28 02:59:11;;;;;;;5.33;3.90;;;18.50;99.90;;;;;;5071223;28;20996;-83
2021/06/28 03:01:40;;;;;;;4.30;4.00;;;18.50;99.90;;;;;;5071036;28;20716;-83
2021/06/28 03:04:09;;;;;;;4.93;4.53;;;18.60;99.90;;;;;;5070889;28;20641;-83
2021/06/28 03:06:40;;;;;;;4.70;4.10;;;18.50;99.90;;;;;;5070246;28;21296;-83
2021/06/28 03:09:08;;;;;;;4.70;4.40;;;18.40;99.90;;;;;;5071115;28;21060;-83
2021/06/28 03:11:37;;;;;;;3.93;3.73;;;18.40;99.90;;;;;;5070893;28;20619;-83
2021/06/28 03:14:07;;;;;;;5.17;4.77;;;18.40;99.90;;;;;;5070692;28;20621;-83
2021/06/28 03:16:37;;;;;;;5.10;4.33;;;18.40;99.90;;;;;;5070367;28;20633;-83
2021/06/28 03:19:05;;;;;;;5.07;4.77;;;18.30;99.90;;;;;;5070738;28;20651;-83
2021/06/28 03:21:35;;;;;;;4.90;4.40;;;18.50;99.90;;;;;;5071045;28;20980;-83
2021/06/28 03:24:04;;;;;;;4.50;4.20;;;18.40;99.90;;;;;;5070778;28;21033;-83
2021/06/28 03:26:33;;;;;;;4.97;4.57;;;18.40;99.90;;;;;;5070076;28;20730;-83
2021/06/28 03:29:02;;;;;;;4.40;4.10;;;18.40;99.90;;;;;;5070299;28;20606;-83
2021/06/28 03:31:32;;;;;;;4.60;4.30;;;18.40;99.90;;;;;;5069992;28;20678;-82
2021/06/28 03:34:01;;;;;;;5.23;4.83;;;18.30;99.90;;;;;;5070768;28;20620;-82
2021/06/28 03:36:29;;;;;;;5.20;4.80;;;18.30;99.90;;;;;;5063890;28;20630;-83
2021/06/28 03:38:59;;;;;;;4.90;4.50;;;18.40;99.90;;;;;;5050395;28;20629;-83
2021/06/28 03:41:32;;;;;;;4.83;4.53;;;18.40;99.90;;;;;;5050248;28;20637;-83
2021/06/28 03:44:00;;;;;;;3.90;3.70;;;18.40;99.90;;;;;;5049716;28;20625;-83
2021/06/28 03:46:38;;;;;;;4.67;4.17;;;18.50;99.90;;;;;;5049842;28;20665;-83
2021/06/28 03:49:09;;;;;;;4.70;4.30;;;18.60;99.90;;;;;;5050529;28;20648;-82
2021/06/28 03:51:38;;;;;;;4.50;4.10;;;18.60;99.90;;;;;;5050330;28;21249;-83
2021/06/28 03:54:08;;;;;;;5.37;4.80;;;18.50;99.90;;;;;;5050422;28;20621;-83
2021/06/28 03:56:40;;;;;;;5.13;4.73;;;18.40;99.90;;;;;;5049844;28;21194;-82
2021/06/28 03:59:14;;;;;;;4.27;3.70;;;18.30;99.90;;;;;;5050135;28;21540;-83
2021/06/28 04:01:57;;;;;;;5.27;4.87;;;18.40;99.90;;;;;;5050160;28;20996;-83
2021/06/28 04:04:33;;;;;;;5.10;4.70;;;18.50;99.90;;;;;;5049662;28;21089;-82
2021/06/28 04:07:20;;;;;;;5.10;4.60;;;18.50;99.90;;;;;;5048735;28;20864;-82
2021/06/28 04:10:04;;;;;;;4.67;4.27;;;18.40;99.90;;;;;;5050039;28;20715;-81
2021/06/28 04:12:43;;;;;;;5.50;5.00;;;18.40;99.90;;;;;;5050119;28;20716;-81
2021/06/28 04:15:17;;;;;;;5.20;4.80;;;18.30;99.90;;;;;;5048881;28;20626;-81
2021/06/28 04:17:51;;;;;;;4.90;4.50;;;18.50;99.90;;;;;;5050037;28;20621;-83
2021/06/28 04:20:22;;;;;;;6.27;4.47;;;18.50;99.90;;;;;;5050097;28;20986;-82
2021/06/28 04:22:52;;;;;;;5.67;4.47;;;18.50;99.90;;;;;;5049975;28;20625;-83
2021/06/28 04:25:21;;;;;;;4.77;4.47;;;18.50;99.90;;;;;;5049279;28;20630;-82
2021/06/28 04:27:52;;;;;;;5.10;4.70;;;18.50;99.90;;;;;;5049495;28;20753;-82
2021/06/28 04:30:23;;;;;;;5.20;4.70;;;18.60;99.90;;;;;;5050039;28;20756;-82
2021/06/28 04:32:53;;;;;;;4.80;4.40;;;18.70;99.90;;;;;;5049932;28;20621;-83
2021/06/28 04:35:23;;;;;;;5.23;4.83;;;18.70;99.90;;;;;;5048130;28;20615;-83
2021/06/28 04:37:51;;;;;;;4.80;4.40;;;18.70;99.90;;;;;;5065882;28;20641;-83
2021/06/28 04:40:20;;;;;;;5.63;4.90;;;18.70;99.90;;;;;;5072839;28;20621;-83
2021/06/28 04:42:48;;;;;;;5.50;5.00;;;18.60;99.90;;;;;;5073773;28;20762;-83
2021/06/28 04:45:16;;;;;;;5.07;4.63;;;18.60;99.90;;;;;;5073129;28;20620;-83
2021/06/28 04:47:44;;;;;;;9.20;5.07;;;18.60;99.90;;;;;;5073329;28;20648;-83
2021/06/28 04:50:14;;;;;;;5.00;4.70;;;18.70;99.90;;;;;;5073566;28;21196;-83
2021/06/28 04:52:42;;;;;;;4.90;4.50;;;18.60;99.90;;;;;;5073158;28;20632;-83
2021/06/28 04:55:13;;;;;;;4.90;4.60;;;18.60;99.90;;;;;;5073005;28;20624;-83
2021/06/28 04:57:40;;;;;;;4.83;4.47;;;18.50;99.90;;;;;;5073062;28;20727;-83
2021/06/28 05:00:10;;;;;;;4.60;4.27;;;18.60;99.90;;;;;;5073259;28;20605;-83
2021/06/28 05:02:37;;;;;;;5.10;4.70;;;18.60;99.90;;;;;;5073225;28;20602;-83
2021/06/28 05:05:04;;;;;;;5.17;4.83;;;18.50;99.90;;;;;;5072730;28;20615;-83
2021/06/28 05:07:32;;;;;;;6.77;5.57;;;18.30;99.90;;;;;;5073185;28;20648;-83
2021/06/28 05:10:00;;;;;;;6.07;5.50;;;18.30;99.90;;;;;;5073367;28;20621;-83
2021/06/28 05:12:27;;;;;;;5.63;5.17;;;18.40;99.90;;;;;;5073347;28;20627;-83
2021/06/28 05:14:54;;;;;;;5.03;4.67;;;18.50;99.90;;;;;;5072659;28;20608;-83
2021/06/28 05:17:21;;;;;;;6.00;5.40;;;18.50;99.90;;;;;;5073212;28;20735;-83
2021/06/28 05:19:48;;;;;;;5.77;5.37;;;18.50;99.90;;;;;;5072942;28;20625;-83
2021/06/28 05:22:14;;;;;;;5.63;5.23;;;18.60;99.90;;;;;;5073124;28;20662;-83
2021/06/28 05:24:43;;;;;;;5.97;5.47;;;18.60;99.90;;;;;;5072363;28;20985;-83
2021/06/28 05:27:10;;;;;;;5.03;4.63;;;18.70;99.90;;;;;;5072985;28;20641;-83
2021/06/28 05:29:37;;;;;;;5.70;5.10;;;18.70;99.90;;;;;;5072918;28;20616;-83
2021/06/28 05:32:04;;;;;;;6.23;5.70;;;18.80;99.90;;;;;;5072491;28;20672;-83
2021/06/28 05:34:31;;;;;;;5.97;5.00;;;19.00;99.90;;;;;;5071669;28;20686;-83
2021/06/28 05:36:58;;;;;;;5.00;4.60;;;19.00;99.90;;;;;;5063351;28;20940;-83
2021/06/28 05:39:25;;;;;;;5.30;4.90;;;19.10;99.90;;;;;;5052672;28;20656;-83
2021/06/28 05:41:54;;;;;;;4.80;4.40;;;19.20;99.90;;;;;;5052541;28;20733;-83
2021/06/28 05:44:20;;;;;;;6.03;4.83;;;19.30;99.90;;;;;;5052374;28;21066;-83
2021/06/28 05:46:47;;;;;;;5.37;4.93;;;19.30;99.90;;;;;;5052024;28;20650;-83
2021/06/28 05:49:15;;;;;;;6.67;6.10;;;19.50;99.90;;;;;;5052506;28;20668;-83
2021/06/28 05:51:42;;;;;;;4.73;4.33;;;19.50;99.90;;;;;;5051572;28;20628;-83
2021/06/28 05:54:09;;;;;;;6.00;5.07;;;19.60;99.90;;;;;;5052458;28;21170;-83
2021/06/28 05:56:36;;;;;;;5.50;5.00;;;19.70;99.90;;;;;;5051942;28;20613;-83
2021/06/28 05:59:04;;;;;;;5.13;4.77;;;19.80;99.90;;;;;;5052328;28;20618;-83
2021/06/28 06:01:31;;;;;;;5.40;4.90;;;19.90;99.90;;;;;;5052348;28;20603;-83
2021/06/28 06:03:58;;;;;;;4.90;4.50;;;19.80;99.90;;;;;;5051394;28;20626;-83
2021/06/28 06:06:25;;;;;;;5.00;4.50;;;19.90;99.90;;;;;;5051836;28;20622;-83
2021/06/28 06:08:52;;;;;;;5.10;4.70;;;20.00;99.90;;;;;;5051997;28;20684;-83
2021/06/28 06:11:19;;;;;;;5.27;4.87;;;20.00;99.90;;;;;;5051910;28;20675;-82
2021/06/28 06:13:46;;;;;;;5.27;4.87;;;20.00;99.90;;;;;;5051866;28;20657;-82
2021/06/28 06:16:14;;;;;;;4.77;4.37;;;20.00;99.90;;;;;;5051216;28;21002;-82
2021/06/28 06:18:41;;;;;;;4.53;4.23;;;20.10;99.90;;;;;;5052025;28;20684;-82
2021/06/28 06:21:08;;;;;;;4.37;4.07;;;20.10;99.90;;;;;;5051809;28;21221;-83
2021/06/28 06:23:35;;;;;;;4.83;4.43;;;20.20;99.90;;;;;;5051907;28;20622;-82
2021/06/28 06:26:02;;;;;;;6.53;4.60;;;20.50;99.90;;;;;;5051345;28;20615;-82
2021/06/28 06:28:29;;;;;;;4.50;4.10;;;20.50;99.90;;;;;;5051344;28;20658;-83
2021/06/28 06:30:56;;;;;;;5.43;5.03;;;20.60;99.90;;;;;;5052171;28;20619;-82
2021/06/28 06:33:24;;;;;;;4.80;4.50;;;20.70;99.90;;;;;;5051774;28;21001;-82
2021/06/28 06:35:51;;;;;;;4.50;4.20;;;20.70;99.90;;;;;;5049955;28;20618;-82
2021/06/28 06:38:18;;;;;;;4.87;4.47;;;20.70;99.90;;;;;;5071143;28;20629;-83
2021/06/28 06:40:48;;;;;;;6.63;4.70;;;20.80;99.90;;;;;;5071418;28;20633;-82
2021/06/28 06:43:15;;;;;;;5.63;4.60;;;20.90;99.90;;;;;;5071008;28;20637;-82
2021/06/28 06:45:42;;;;;;;5.03;4.23;;;20.90;99.90;;;;;;5071005;28;20653;-82
2021/06/28 06:48:10;;;;;;;4.53;4.13;;;20.90;99.90;;;;;;5071003;28;21436;-82
2021/06/28 06:50:39;;;;;;;4.37;4.07;;;20.80;99.90;;;;;;5071279;28;20614;-82
2021/06/28 06:53:06;;;;;;;4.10;3.70;;;20.70;99.90;;;;;;5071212;28;20676;-83
2021/06/28 06:55:34;;;;;;;3.57;2.90;;;20.80;99.90;;;;;;5070020;28;20712;-83
2021/06/28 06:58:02;;;;;;;3.70;3.50;;;21.00;99.90;;;;;;5071346;28;20623;-82
2021/06/28 07:00:29;;;;;;;3.90;3.70;;;21.20;99.90;;;;;;5069062;28;20610;-84
2021/06/28 07:02:56;;;;;;;6.10;3.83;;;21.40;99.90;;;;;;5053620;28;20685;-83
2021/06/28 07:05:23;;;;;;;4.83;3.63;;;21.40;99.90;;;;;;5065427;28;20623;-84
2021/06/28 07:07:52;;;;;;;4.17;3.80;;;21.50;99.90;;;;;;5071087;28;21297;-84
2021/06/28 07:10:19;;;;;;;4.37;4.03;;;21.60;99.90;;;;;;5070789;28;20938;-83
2021/06/28 07:12:47;;;;;;;3.80;3.50;;;21.70;99.90;;;;;;5070954;28;20619;-84
2021/06/28 07:15:17;;;;;;;3.40;3.20;;;21.90;99.90;;;;;;5070364;28;20680;-84
2021/06/28 07:17:44;;;;;;;5.20;4.07;;;22.10;99.90;;;;;;5070671;28;20642;-84
2021/06/28 07:20:14;;;;;;;3.73;3.53;;;22.10;99.90;;;;;;5070531;28;20618;-84
2021/06/28 07:22:42;;;;;;;3.20;3.00;;;22.00;99.90;;;;;;5070301;28;20657;-84
2021/06/28 07:25:13;;;;;;;3.63;3.43;;;22.10;99.90;;;;;;5070050;28;20687;-84
2021/06/28 07:27:41;;;;;;;3.80;3.60;;;22.20;99.90;;;;;;5070746;28;20658;-84
2021/06/28 07:30:11;;;;;;;3.40;3.10;;;22.30;99.60;;;;;;5070700;28;20660;-84
2021/06/28 07:32:38;;;;;;;3.80;3.50;;;22.40;99.30;;;;;;5070560;28;20614;-84
2021/06/28 07:35:07;;;;;;;3.70;3.43;;;22.50;99.90;;;;;;5068087;28;20616;-84
2021/06/28 07:37:34;;;;;;;3.83;3.53;;;22.60;99.90;;;;;;5057083;28;20736;-84
2021/06/28 07:40:01;;;;;;;3.67;3.47;;;22.50;99.70;;;;;;5050878;28;20624;-84
2021/06/28 07:42:30;;;;;;;4.30;4.00;;;22.50;99.10;;;;;;5050406;28;20632;-84
2021/06/28 07:44:57;;;;;;;3.87;3.67;;;22.50;99.90;;;;;;5049940;28;20628;-84
2021/06/28 07:47:25;;;;;;;7.20;3.53;;;22.70;99.90;;;;;;5049940;28;20753;-84
2021/06/28 07:49:53;;;;;;;5.53;3.90;;;22.60;98.90;;;;;;5048360;28;21159;-84
2021/06/28 07:52:20;;;;;;;3.73;3.50;;;22.70;99.90;;;;;;5050463;28;20609;-86
2021/06/28 07:54:48;;;;;;;3.60;3.40;;;22.90;98.90;;;;;;5049504;28;20629;-86
2021/06/28 07:57:15;;;;;;;3.70;3.37;;;23.10;98.10;;;;;;5050270;28;20622;-84
2021/06/28 07:59:43;;;;;;;4.37;4.07;;;23.30;98.30;;;;;;5050116;28;20604;-85
2021/06/28 08:02:10;;;;;;;4.80;4.47;;;23.40;99.40;;;;;;5050026;28;20608;-86
2021/06/28 08:04:37;;;;;;;4.17;3.93;;;23.40;98.70;;;;;;5049525;28;20685;-85
2021/06/28 08:07:05;;;;;;;3.93;3.73;;;23.40;98.80;;;;;;5050113;28;20613;-85
2021/06/28 08:09:32;;;;;;;4.27;4.07;;;23.70;97.50;;;;;;5050253;28;20672;-86
2021/06/28 08:12:00;;;;;;;4.53;4.13;;;23.80;97.30;;;;;;5050227;28;20729;-85
2021/06/28 08:14:27;;;;;;;3.73;3.43;;;24.00;97.20;;;;;;5048854;28;20610;-84
2021/06/28 08:16:55;;;;;;;3.50;3.30;;;24.00;95.40;;;;;;5049634;28;20732;-84
2021/06/28 08:19:22;;;;;;;3.40;3.20;;;23.90;95.60;;;;;;5049479;28;20629;-84
2021/06/28 08:21:51;;;;;;;3.20;3.03;;;23.70;95.00;;;;;;5050068;28;20628;-83
2021/06/28 08:24:18;;;;;;;3.23;3.03;;;23.60;95.20;;;;;;5049584;28;20614;-84
2021/06/28 08:26:45;;;;;;;3.80;3.40;;;24.00;94.90;;;;;;5049770;28;20951;-84
2021/06/28 08:29:13;;;;;;;3.00;2.90;;;24.20;93.90;;;;;;5049420;28;20696;-84
2021/06/28 08:31:41;;;;;;;3.33;3.13;;;24.30;94.90;;;;;;5049570;28;20711;-84
2021/06/28 08:34:09;;;;;;;3.27;3.07;;;24.40;93.30;;;;;;5052469;28;21189;-84
2021/06/28 08:36:36;;;;;;;10.60;3.10;;;24.60;94.10;;;;;;5062338;28;20633;-84
2021/06/28 08:39:05;;;;;;;3.60;3.30;;;24.60;93.30;;;;;;5050177;28;20622;-84
2021/06/28 08:41:33;;;;;;;4.30;3.60;;;24.60;93.80;;;;;;5049898;28;20627;-84
2021/06/28 08:44:00;;;;;;;3.20;2.90;;;24.80;94.00;;;;;;5049249;28;20972;-83
2021/06/28 08:46:27;;;;;;;3.67;3.37;;;24.90;93.90;;;;;;5050000;28;20614;-84
2021/06/28 08:48:55;;;;;;;4.20;3.90;;;24.90;94.50;;;;;;5049800;28;21222;-85
2021/06/28 08:51:26;;;;;;;3.47;3.13;;;25.10;93.10;;;;;;5049720;28;20710;-84
2021/06/28 08:53:55;;;;;;;4.00;3.70;;;25.20;92.20;;;;;;5049733;28;20614;-84
2021/06/28 08:56:22;;;;;;;4.07;3.77;;;25.20;93.40;;;;;;5049308;28;20602;-84
2021/06/28 08:58:49;;;;;;;4.50;3.80;;;25.00;92.60;;;;;;5049777;28;21195;-84
2021/06/28 09:01:16;;;;;;;4.10;3.80;;;25.10;92.10;;;;;;5049784;28;20645;-83
2021/06/28 09:03:43;;;;;;;3.50;3.30;;;24.90;92.00;;;;;;5049724;28;20610;-85
2021/06/28 09:06:11;;;;;;;3.60;3.40;;;24.90;93.40;;;;;;5049656;28;20614;-84
2021/06/28 09:08:52;;;;;;;3.70;3.50;;;25.10;92.20;;;;;;5049527;28;20650;-84
2021/06/28 09:11:19;;;;;;;3.60;3.27;;;25.00;90.50;;;;;;5049813;28;20713;-84
2021/06/28 09:13:49;;;;;;;3.50;3.30;;;25.20;92.00;;;;;;5049643;28;20619;-84
2021/06/28 09:16:20;;;;;;;4.00;3.70;;;25.40;90.70;;;;;;5049718;28;20626;-84
2021/06/28 09:18:57;;;;;;;3.30;3.10;;;25.30;89.70;;;;;;5049689;28;20709;-84
2021/06/28 09:21:30;;;;;;;3.10;2.90;;;25.40;88.40;;;;;;5049114;28;20606;-84
2021/06/28 09:24:01;;;;;;;3.60;3.40;;;25.50;87.00;;;;;;5049549;28;20660;-84
2021/06/28 09:26:33;;;;;;;3.40;3.10;;;25.40;86.20;;;;;;5052596;28;20637;-83
2021/06/28 09:29:03;;;;;;;4.13;3.47;;;25.20;84.70;;;;;;5053023;28;20711;-84
2021/06/28 09:31:42;;;;;;;3.40;3.20;;;25.30;85.50;;;;;;5052987;28;20622;-83
2021/06/28 09:34:15;;;;;;;3.97;3.33;;;25.50;85.20;;;;;;5052675;28;20617;-84
2021/06/28 09:36:49;;;;;;;3.83;3.53;;;25.60;84.70;;;;;;5059313;28;20643;-84
2021/06/28 09:39:19;;;;;;;3.60;3.40;;;25.50;82.40;;;;;;5073006;28;20665;-84
2021/06/28 09:41:46;;;;;;;5.43;3.30;;;25.50;83.80;;;;;;5072691;28;20656;-84
2021/06/28 09:44:13;;;;;;;3.47;3.13;;;25.50;82.80;;;;;;5072448;28;21158;-84
2021/06/28 09:46:41;;;;;;;4.20;3.90;;;25.80;86.10;;;;;;5072527;28;20626;-84
2021/06/28 09:49:15;;;;;;;5.13;3.70;;;25.80;83.20;;;;;;5072880;28;20677;-84
2021/06/28 09:51:42;;;;;;;3.40;3.20;;;26.00;85.10;;;;;;5072590;28;20625;-84
2021/06/28 09:54:20;;;;;;;3.73;3.43;;;26.30;86.30;;;;;;5072505;28;21043;-84
2021/06/28 09:56:50;;;;;;;4.30;4.10;;;26.50;82.40;;;;;;5072397;28;20972;-84
2021/06/28 09:59:26;;;;;;;3.10;2.90;;;26.70;83.60;;;;;;5072639;28;20636;-85
2021/06/28 10:02:18;;;;;;;4.00;3.70;;;26.90;81.80;;;;;;5072562;28;20624;-85
2021/06/28 10:04:51;;;;;;;3.53;3.33;;;26.90;80.80;;;;;;5072106;28;20605;-85
2021/06/28 10:07:27;;;;;;;3.60;3.30;;;27.20;82.30;;;;;;5072090;28;21002;-85
2021/06/28 10:10:18;;;;;;;3.67;3.47;;;27.30;76.10;;;;;;5072325;28;21058;-85
2021/06/28 10:12:47;;;;;;;4.07;3.33;;;27.50;79.00;;;;;;5072111;28;20658;-84
2021/06/28 10:15:17;;;;;;;3.50;3.30;;;27.50;78.40;;;;;;5072151;28;21024;-85
2021/06/28 10:17:45;;;;;;;3.67;3.37;;;27.20;78.40;;;;;;5071786;28;20938;-85
2021/06/28 10:20:14;;;;;;;4.30;4.00;;;27.40;77.70;;;;;;5072378;28;20616;-85
2021/06/28 10:22:43;;;;;;;6.33;3.70;;;27.60;78.70;;;;;;5071879;28;21220;-85
2021/06/28 10:25:12;;;;;;;4.30;4.00;;;27.70;74.70;;;;;;5071759;28;20601;-85
2021/06/28 10:27:40;;;;;;;3.87;3.67;;;27.90;76.10;;;;;;5072223;28;21182;-85
2021/06/28 10:30:10;;;;;;;3.87;3.67;;;28.00;75.20;;;;;;5072149;28;20655;-84
2021/06/28 10:32:37;;;;;;;3.53;3.27;;;28.30;74.70;;;;;;5071625;28;20616;-85
2021/06/28 10:35:07;;;;;;;5.43;3.77;;;28.50;73.80;;;;;;5071242;28;20625;-85
2021/06/28 10:37:37;;;;;;;4.50;4.20;;;28.60;74.90;;;;;;5070113;28;20675;-85
2021/06/28 10:40:08;;;;;;;4.60;3.40;;;28.40;72.10;;;;;;5071712;28;20987;-85
2021/06/28 10:42:40;;;;;;;3.40;3.20;;;28.40;72.80;;;;;;5071317;28;20630;-85
2021/06/28 10:45:10;;;;;;;3.63;3.37;;;28.70;70.70;;;;;;5071574;28;20609;-86
2021/06/28 10:47:38;;;;;;;3.93;3.60;;;28.90;68.20;;;;;;5071842;28;21142;-86
2021/06/28 10:50:09;;;;;;;3.20;3.10;;;29.00;65.50;;;;;;5071699;28;20701;-86
2021/06/28 10:52:52;;;;;;;3.93;3.63;;;29.00;67.60;;;;;;5071702;28;20648;-86
2021/06/28 10:55:41;;;;;;;3.60;3.30;;;29.40;71.60;;;;;;5070692;28;20644;-86
2021/06/28 10:58:27;;;;;;;3.97;3.57;;;29.60;66.00;;;;;;5071494;28;20712;-86
2021/06/28 11:01:02;;;;;;;4.37;4.03;;;29.70;69.30;;;;;;5071330;28;20609;-85
2021/06/28 11:03:34;;;;;;;3.40;3.20;;;29.60;69.30;;;;;;5070952;28;20655;-85
2021/06/28 11:06:19;;;;;;;3.67;3.47;;;29.60;68.80;;;;;;5071225;28;20704;-85
2021/06/28 11:09:00;;;;;;;3.10;2.90;;;29.70;65.30;;;;;;5071202;28;20660;-85
2021/06/28 11:11:58;;;;;;;6.63;3.97;;;29.90;67.10;;;;;;5071108;28;20725;-86
2021/06/28 11:14:52;;;;;;;3.77;3.47;;;30.30;68.10;;;;;;5070908;28;20621;-87
2021/06/28 11:17:22;;;;;;;4.20;3.90;;;30.40;63.90;;;;;;5071109;28;20682;-86
2021/06/28 11:20:06;;;;;;;3.47;3.27;;;30.20;63.80;;;;;;5070955;28;20637;-85
2021/06/28 11:23:00;;;;;;;4.00;3.70;;;30.10;68.10;;;;;;5070724;28;20613;-85
2021/06/28 11:25:29;;;;;;;4.20;3.93;;;30.50;69.70;;;;;;5070231;28;20674;-85
2021/06/28 11:28:14;;;;;;;4.03;3.80;;;30.20;63.80;;;;;;5070562;28;20626;-86
2021/06/28 11:31:03;;;;;;;4.63;4.33;;;30.10;65.60;;;;;;5070258;28;21403;-86
2021/06/28 11:33:36;;;;;;;4.73;4.33;;;30.70;64.40;;;;;;5070727;28;20622;-86
2021/06/28 11:36:05;;;;;;;3.60;3.40;;;31.00;61.30;;;;;;5068119;28;20630;-86
2021/06/28 11:38:38;;;;;;;3.80;3.50;;;31.30;65.40;;;;;;5050320;28;20703;-87
2021/06/28 11:41:15;;;;;;;3.80;3.60;;;31.50;62.40;;;;;;5049924;28;20633;-87
2021/06/28 11:43:44;;;;;;;3.70;3.50;;;31.60;63.00;;;;;;5053051;28;20645;-86
2021/06/28 11:46:15;;;;;;;3.40;3.20;;;31.80;59.40;;;;;;5061626;28;20630;-85
2021/06/28 11:48:47;;;;;;;3.73;3.40;;;30.90;63.70;;;;;;5056816;28;20741;-86
2021/06/28 11:51:22;;;;;;;3.80;3.60;;;31.40;61.00;;;;;;5050446;28;21152;-86
2021/06/28 11:53:56;;;;;;;4.23;3.93;;;31.80;61.90;;;;;;5069594;28;20621;-87
2021/06/28 11:56:26;;;;;;;5.83;4.00;;;32.00;58.60;;;;;;5069027;28;20613;-86
2021/06/28 11:58:55;;;;;;;4.00;3.80;;;32.40;58.60;;;;;;5070331;28;20633;-86
2021/06/28 12:01:26;;;;;;;4.07;3.83;;;32.30;60.80;;;;;;5059183;28;20650;-87
2021/06/28 12:03:53;;;;;;;3.70;3.50;;;32.20;59.50;;;;;;5050047;28;20685;-86
2021/06/28 12:06:20;;;;;;;3.87;3.57;;;32.40;58.40;;;;;;5050027;28;21190;-86
2021/06/28 12:08:47;;;;;;;3.37;3.17;;;32.40;57.70;;;;;;5049870;28;20646;-87
2021/06/28 12:11:15;;;;;;;4.03;3.37;;;32.90;59.00;;;;;;5050454;28;20828;-87
2021/06/28 12:13:44;;;;;;;4.03;3.83;;;33.50;58.20;;;;;;5050248;28;20615;-87
2021/06/28 12:16:31;;;;;;;3.53;3.33;;;33.50;59.60;;;;;;5049865;28;20638;-87
2021/06/28 12:19:07;;;;;;;4.53;4.13;;;34.50;57.00;;;;;;5065752;28;20609;-86
2021/06/28 12:21:37;;;;;;;3.63;3.43;;;35.10;52.70;;;;;;5070235;28;20617;-87
2021/06/28 12:24:10;;;;;;;3.60;3.40;;;35.90;54.30;;;;;;5070128;28;21161;-85
2021/06/28 12:26:38;;;;;;;3.40;3.20;;;36.20;53.70;;;;;;5069212;28;20620;-85
2021/06/28 12:29:24;;;;;;;3.60;3.37;;;36.60;52.60;;;;;;5069352;28;20758;-86
2021/06/28 12:32:00;;;;;;;3.80;3.60;;;36.60;53.10;;;;;;5069861;28;20620;-86
2021/06/28 12:34:27;;;;;;;3.60;3.40;;;36.20;52.00;;;;;;5067827;28;20648;-86
2021/06/28 12:36:54;;;;;;;3.57;3.37;;;35.70;52.40;;;;;;5069656;28;21224;-84
2021/06/28 12:39:25;;;;;;;3.23;3.03;;;34.40;52.10;;;;;;5069770;28;20624;-85
2021/06/28 12:41:52;;;;;;;3.30;3.10;;;33.80;54.80;;;;;;5068911;28;20625;-85
2021/06/28 12:44:20;;;;;;;6.70;3.50;;;34.00;55.40;;;;;;5068010;28;20620;-86
2021/06/28 12:46:48;;;;;;;4.27;3.87;;;34.60;55.30;;;;;;5069731;28;20656;-85
2021/06/28 12:49:17;;;;;;;3.80;3.60;;;34.20;54.20;;;;;;5069909;28;20643;-86
2021/06/28 12:51:44;;;;;;;3.40;3.20;;;34.40;54.80;;;;;;5065156;28;20610;-87
2021/06/28 12:54:27;;;;;;;4.27;3.97;;;34.70;52.70;;;;;;5049578;28;20647;-86
2021/06/28 12:56:55;;;;;;;3.50;3.30;;;34.50;54.80;;;;;;5049849;28;20652;-86
2021/06/28 12:59:37;;;;;;;3.90;3.60;;;34.00;55.30;;;;;;5050257;28;20620;-86
2021/06/28 13:02:04;;;;;;;3.87;3.57;;;34.30;54.30;;;;;;5053659;28;20618;-87
2021/06/28 13:04:32;;;;;;;3.90;3.60;;;34.20;54.80;;;;;;5053088;28;20973;-87